sensor_id;sensor_type;location;lat;lon;timestamp;pressure;altitude;pressure_sealevel;temperature;humidity
77572;BME280;67214;47.454;18.966;2023-09-08T00:00:47;100862.42;;;14.91;78.09
77572;BME280;67214;47.454;18.966;2023-09-08T00:03:14;100863.91;;;14.84;78.34
77572;BME280;67214;47.454;18.966;2023-09-08T00:05:42;100869.17;;;14.80;78.63
77572;BME280;67214;47.454;18.966;2023-09-08T00:08:09;100862.85;;;14.81;78.48
77572;BME280;67214;47.454;18.966;2023-09-08T00:10:37;100858.84;;;14.96;77.89
77572;BME280;67214;47.454;18.966;2023-09-08T00:13:04;100866.92;;;14.91;78.23
77572;BME280;67214;47.454;18.966;2023-09-08T00:15:33;100865.58;;;14.91;78.10
77572;BME280;67214;47.454;18.966;2023-09-08T00:18:04;100870.83;;;14.86;78.51
77572;BME280;67214;47.454;18.966;2023-09-08T00:20:32;100872.66;;;14.86;78.81
77572;BME280;67214;47.454;18.966;2023-09-08T00:22:59;100874.88;;;14.81;79.25
77572;BME280;67214;47.454;18.966;2023-09-08T00:25:26;100880.67;;;14.71;79.56
77572;BME280;67214;47.454;18.966;2023-09-08T00:27:54;100878.81;;;14.71;79.68
77572;BME280;67214;47.454;18.966;2023-09-08T00:30:21;100883.86;;;14.80;79.01
77572;BME280;67214;47.454;18.966;2023-09-08T00:32:49;100884.98;;;14.77;78.99
77572;BME280;67214;47.454;18.966;2023-09-08T00:35:16;100870.29;;;14.77;79.31
77572;BME280;67214;47.454;18.966;2023-09-08T00:37:44;100880.85;;;14.79;79.12
77572;BME280;67214;47.454;18.966;2023-09-08T00:40:11;100878.09;;;14.75;79.13
77572;BME280;67214;47.454;18.966;2023-09-08T00:42:39;100865.38;;;14.67;79.30
77572;BME280;67214;47.454;18.966;2023-09-08T00:45:06;100870.77;;;14.62;79.20
77572;BME280;67214;47.454;18.966;2023-09-08T00:47:34;100863.22;;;14.67;79.12
77572;BME280;67214;47.454;18.966;2023-09-08T00:50:04;100862.31;;;14.72;78.60
77572;BME280;67214;47.454;18.966;2023-09-08T00:52:31;100858.18;;;14.73;78.10
77572;BME280;67214;47.454;18.966;2023-09-08T00:55:00;100865.13;;;14.70;78.14
77572;BME280;67214;47.454;18.966;2023-09-08T00:57:27;100861.82;;;14.72;78.63
77572;BME280;67214;47.454;18.966;2023-09-08T00:59:55;100860.19;;;14.81;78.02
77572;BME280;67214;47.454;18.966;2023-09-08T01:02:22;100845.77;;;14.78;78.13
77572;BME280;67214;47.454;18.966;2023-09-08T01:04:50;100849.11;;;14.70;78.62
77572;BME280;67214;47.454;18.966;2023-09-08T01:07:19;100845.34;;;14.67;78.52
77572;BME280;67214;47.454;18.966;2023-09-08T01:09:47;100840.44;;;14.63;78.81
77572;BME280;67214;47.454;18.966;2023-09-08T01:12:16;100842.38;;;14.61;78.83
77572;BME280;67214;47.454;18.966;2023-09-08T01:14:44;100843.89;;;14.54;79.27
77572;BME280;67214;47.454;18.966;2023-09-08T01:17:12;100849.50;;;14.51;78.98
77572;BME280;67214;47.454;18.966;2023-09-08T01:19:39;100848.41;;;14.48;79.88
77572;BME280;67214;47.454;18.966;2023-09-08T01:22:11;100846.48;;;14.44;79.72
77572;BME280;67214;47.454;18.966;2023-09-08T01:25:13;100840.94;;;14.41;79.67
77572;BME280;67214;47.454;18.966;2023-09-08T01:27:46;100852.22;;;14.39;80.23
77572;BME280;67214;47.454;18.966;2023-09-08T01:30:15;100837.44;;;14.35;79.89
77572;BME280;67214;47.454;18.966;2023-09-08T01:32:44;100842.76;;;14.41;79.65
77572;BME280;67214;47.454;18.966;2023-09-08T01:35:13;100840.48;;;14.36;79.84
77572;BME280;67214;47.454;18.966;2023-09-08T01:37:42;100841.81;;;14.36;79.91
77572;BME280;67214;47.454;18.966;2023-09-08T01:40:11;100832.59;;;14.35;79.77
77572;BME280;67214;47.454;18.966;2023-09-08T01:42:39;100835.65;;;14.30;79.98
77572;BME280;67214;47.454;18.966;2023-09-08T01:45:07;100837.95;;;14.29;79.94
77572;BME280;67214;47.454;18.966;2023-09-08T01:47:35;100841.76;;;14.21;80.30
77572;BME280;67214;47.454;18.966;2023-09-08T01:50:03;100835.57;;;14.21;81.02
77572;BME280;67214;47.454;18.966;2023-09-08T01:52:30;100841.52;;;14.19;80.95
77572;BME280;67214;47.454;18.966;2023-09-08T01:54:58;100831.49;;;14.11;81.14
77572;BME280;67214;47.454;18.966;2023-09-08T01:57:25;100837.69;;;14.06;81.16
77572;BME280;67214;47.454;18.966;2023-09-08T01:59:53;100829.86;;;13.99;81.50
77572;BME280;67214;47.454;18.966;2023-09-08T02:02:20;100826.23;;;13.94;81.73
77572;BME280;67214;47.454;18.966;2023-09-08T02:04:48;100835.45;;;13.96;81.71
77572;BME280;67214;47.454;18.966;2023-09-08T02:07:15;100835.57;;;13.94;81.88
77572;BME280;67214;47.454;18.966;2023-09-08T02:09:43;100833.66;;;13.91;81.79
77572;BME280;67214;47.454;18.966;2023-09-08T02:12:10;100843.37;;;13.86;82.06
77572;BME280;67214;47.454;18.966;2023-09-08T02:14:38;100845.06;;;13.87;82.12
77572;BME280;67214;47.454;18.966;2023-09-08T02:17:05;100840.00;;;13.84;82.16
77572;BME280;67214;47.454;18.966;2023-09-08T02:19:33;100840.84;;;13.85;82.45
77572;BME280;67214;47.454;18.966;2023-09-08T02:22:00;100836.38;;;13.80;82.89
77572;BME280;67214;47.454;18.966;2023-09-08T02:24:27;100841.08;;;13.82;82.85
77572;BME280;67214;47.454;18.966;2023-09-08T02:26:55;100837.71;;;13.80;82.86
77572;BME280;67214;47.454;18.966;2023-09-08T02:29:22;100843.91;;;13.75;82.65
77572;BME280;67214;47.454;18.966;2023-09-08T02:31:50;100844.17;;;13.66;83.15
77572;BME280;67214;47.454;18.966;2023-09-08T02:34:17;100838.73;;;13.62;83.23
77572;BME280;67214;47.454;18.966;2023-09-08T02:36:45;100840.66;;;13.66;83.27
77572;BME280;67214;47.454;18.966;2023-09-08T02:39:14;100839.05;;;13.74;83.16
77572;BME280;67214;47.454;18.966;2023-09-08T02:41:41;100840.43;;;13.69;83.18
77572;BME280;67214;47.454;18.966;2023-09-08T02:44:08;100831.73;;;13.61;83.56
77572;BME280;67214;47.454;18.966;2023-09-08T02:46:36;100838.88;;;13.61;83.69
77572;BME280;67214;47.454;18.966;2023-09-08T02:49:04;100835.86;;;13.54;84.15
77572;BME280;67214;47.454;18.966;2023-09-08T02:51:31;100831.85;;;13.60;83.97
77572;BME280;67214;47.454;18.966;2023-09-08T02:53:58;100837.30;;;13.58;83.81
77572;BME280;67214;47.454;18.966;2023-09-08T02:56:26;100835.95;;;13.64;83.47
77572;BME280;67214;47.454;18.966;2023-09-08T02:58:53;100841.40;;;13.62;83.49
77572;BME280;67214;47.454;18.966;2023-09-08T03:01:21;100839.33;;;13.66;83.25
77572;BME280;67214;47.454;18.966;2023-09-08T03:03:49;100843.09;;;13.63;83.31
77572;BME280;67214;47.454;18.966;2023-09-08T03:06:18;100836.66;;;13.66;83.00
77572;BME280;67214;47.454;18.966;2023-09-08T03:08:48;100841.17;;;13.60;82.93
77572;BME280;67214;47.454;18.966;2023-09-08T03:11:15;100838.41;;;13.56;83.10
77572;BME280;67214;47.454;18.966;2023-09-08T03:13:42;100851.73;;;13.56;83.62
77572;BME280;67214;47.454;18.966;2023-09-08T03:16:10;100839.11;;;13.58;82.94
77572;BME280;67214;47.454;18.966;2023-09-08T03:18:38;100839.73;;;13.61;82.83
77572;BME280;67214;47.454;18.966;2023-09-08T03:21:06;100840.92;;;13.57;82.67
77572;BME280;67214;47.454;18.966;2023-09-08T03:23:38;100836.22;;;13.61;82.87
77572;BME280;67214;47.454;18.966;2023-09-08T03:26:06;100834.63;;;13.58;83.25
77572;BME280;67214;47.454;18.966;2023-09-08T03:28:35;100844.92;;;13.63;82.61
77572;BME280;67214;47.454;18.966;2023-09-08T03:31:04;100844.44;;;13.58;83.00
77572;BME280;67214;47.454;18.966;2023-09-08T03:33:31;100840.10;;;13.57;82.95
77572;BME280;67214;47.454;18.966;2023-09-08T03:35:59;100845.92;;;13.50;83.17
77572;BME280;67214;47.454;18.966;2023-09-08T03:38:27;100848.48;;;13.46;83.18
77572;BME280;67214;47.454;18.966;2023-09-08T03:40:54;100850.30;;;13.46;83.60
77572;BME280;67214;47.454;18.966;2023-09-08T03:43:22;100846.66;;;13.47;83.14
77572;BME280;67214;47.454;18.966;2023-09-08T03:45:49;100847.41;;;13.43;83.25
77572;BME280;67214;47.454;18.966;2023-09-08T03:48:17;100848.00;;;13.41;83.68
77572;BME280;67214;47.454;18.966;2023-09-08T03:50:44;100840.84;;;13.47;83.71
77572;BME280;67214;47.454;18.966;2023-09-08T03:53:12;100838.66;;;13.53;83.34
77572;BME280;67214;47.454;18.966;2023-09-08T03:55:40;100847.88;;;13.48;83.23
77572;BME280;67214;47.454;18.966;2023-09-08T03:58:08;100840.70;;;13.49;83.60
77572;BME280;67214;47.454;18.966;2023-09-08T04:00:35;100850.55;;;13.43;83.57
77572;BME280;67214;47.454;18.966;2023-09-08T04:03:03;100852.36;;;13.42;83.71
77572;BME280;67214;47.454;18.966;2023-09-08T04:05:31;100856.47;;;13.41;83.58
77572;BME280;67214;47.454;18.966;2023-09-08T04:07:58;100859.28;;;13.39;83.39
77572;BME280;67214;47.454;18.966;2023-09-08T04:10:26;100857.69;;;13.42;83.61
77572;BME280;67214;47.454;18.966;2023-09-08T04:12:53;100856.25;;;13.38;83.43
77572;BME280;67214;47.454;18.966;2023-09-08T04:15:21;100857.35;;;13.30;83.78
77572;BME280;67214;47.454;18.966;2023-09-08T04:17:49;100855.53;;;13.25;84.26
77572;BME280;67214;47.454;18.966;2023-09-08T04:20:16;100860.87;;;13.31;84.20
77572;BME280;67214;47.454;18.966;2023-09-08T04:22:44;100862.09;;;13.32;83.97
77572;BME280;67214;47.454;18.966;2023-09-08T04:25:11;100860.50;;;13.30;84.29
77572;BME280;67214;47.454;18.966;2023-09-08T04:27:39;100851.80;;;13.22;84.81
77572;BME280;67214;47.454;18.966;2023-09-08T04:30:07;100859.91;;;13.26;84.71
77572;BME280;67214;47.454;18.966;2023-09-08T04:32:34;100861.48;;;13.23;84.75
77572;BME280;67214;47.454;18.966;2023-09-08T04:35:04;100867.16;;;13.30;84.92
77572;BME280;67214;47.454;18.966;2023-09-08T04:37:32;100868.86;;;13.36;84.20
77572;BME280;67214;47.454;18.966;2023-09-08T04:39:59;100860.13;;;13.40;84.33
77572;BME280;67214;47.454;18.966;2023-09-08T04:42:27;100861.31;;;13.41;84.43
77572;BME280;67214;47.454;18.966;2023-09-08T04:44:55;100864.83;;;13.42;84.56
77572;BME280;67214;47.454;18.966;2023-09-08T04:47:23;100863.39;;;13.43;84.51
77572;BME280;67214;47.454;18.966;2023-09-08T04:49:50;100865.69;;;13.48;84.68
77572;BME280;67214;47.454;18.966;2023-09-08T04:52:17;100862.50;;;13.54;84.11
77572;BME280;67214;47.454;18.966;2023-09-08T04:54:45;100864.80;;;13.53;84.50
77572;BME280;67214;47.454;18.966;2023-09-08T04:57:12;100862.50;;;13.60;84.27
77572;BME280;67214;47.454;18.966;2023-09-08T04:59:40;100866.98;;;13.65;84.10
77572;BME280;67214;47.454;18.966;2023-09-08T05:02:07;100862.08;;;13.75;83.70
77572;BME280;67214;47.454;18.966;2023-09-08T05:04:34;100857.82;;;13.78;83.75
77572;BME280;67214;47.454;18.966;2023-09-08T05:07:02;100860.84;;;13.85;83.59
77572;BME280;67214;47.454;18.966;2023-09-08T05:09:29;100855.34;;;13.98;83.79
77572;BME280;67214;47.454;18.966;2023-09-08T05:11:57;100858.66;;;14.11;83.49
77572;BME280;67214;47.454;18.966;2023-09-08T05:14:26;100855.95;;;14.22;83.45
77572;BME280;67214;47.454;18.966;2023-09-08T05:16:53;100871.41;;;14.33;82.84
77572;BME280;67214;47.454;18.966;2023-09-08T05:19:22;100862.00;;;14.50;83.22
77572;BME280;67214;47.454;18.966;2023-09-08T05:21:51;100869.44;;;14.62;82.73
77572;BME280;67214;47.454;18.966;2023-09-08T05:24:18;100863.80;;;14.70;82.45
77572;BME280;67214;47.454;18.966;2023-09-08T05:26:47;100868.65;;;14.86;82.56
77572;BME280;67214;47.454;18.966;2023-09-08T05:29:14;100866.61;;;14.99;82.22
77572;BME280;67214;47.454;18.966;2023-09-08T05:31:42;100868.34;;;15.34;81.32
77572;BME280;67214;47.454;18.966;2023-09-08T05:34:10;100872.79;;;15.49;81.10
77572;BME280;67214;47.454;18.966;2023-09-08T05:36:37;100862.89;;;15.80;80.35
77572;BME280;67214;47.454;18.966;2023-09-08T05:39:06;100863.32;;;16.04;79.72
77572;BME280;67214;47.454;18.966;2023-09-08T05:41:33;100866.23;;;16.40;79.34
77572;BME280;67214;47.454;18.966;2023-09-08T05:44:01;100857.37;;;16.58;78.84
77572;BME280;67214;47.454;18.966;2023-09-08T05:46:29;100864.14;;;16.76;77.94
77572;BME280;67214;47.454;18.966;2023-09-08T05:48:56;100867.92;;;17.06;77.39
77572;BME280;67214;47.454;18.966;2023-09-08T05:51:24;100862.15;;;17.29;76.23
77572;BME280;67214;47.454;18.966;2023-09-08T05:53:51;100863.14;;;17.55;75.01
77572;BME280;67214;47.454;18.966;2023-09-08T05:56:19;100859.55;;;17.95;72.86
77572;BME280;67214;47.454;18.966;2023-09-08T05:58:47;100853.17;;;18.36;69.83
77572;BME280;67214;47.454;18.966;2023-09-08T06:01:16;100851.14;;;18.77;67.22
77572;BME280;67214;47.454;18.966;2023-09-08T06:03:43;100862.62;;;18.91;66.95
77572;BME280;67214;47.454;18.966;2023-09-08T06:06:11;100859.89;;;19.13;66.62
77572;BME280;67214;47.454;18.966;2023-09-08T06:08:38;100854.75;;;19.36;64.67
77572;BME280;67214;47.454;18.966;2023-09-08T06:11:05;100853.33;;;19.49;64.12
77572;BME280;67214;47.454;18.966;2023-09-08T06:13:33;100857.75;;;19.67;63.61
77572;BME280;67214;47.454;18.966;2023-09-08T06:16:01;100856.94;;;19.90;62.17
77572;BME280;67214;47.454;18.966;2023-09-08T06:18:28;100856.30;;;20.05;62.21
77572;BME280;67214;47.454;18.966;2023-09-08T06:20:57;100859.03;;;20.29;60.08
77572;BME280;67214;47.454;18.966;2023-09-08T06:23:25;100859.33;;;20.46;59.76
77572;BME280;67214;47.454;18.966;2023-09-08T06:25:56;100861.48;;;20.71;59.13
77572;BME280;67214;47.454;18.966;2023-09-08T06:28:24;100861.16;;;20.78;58.92
77572;BME280;67214;47.454;18.966;2023-09-08T06:30:52;100862.47;;;20.90;58.04
77572;BME280;67214;47.454;18.966;2023-09-08T06:33:19;100865.97;;;21.03;59.10
77572;BME280;67214;47.454;18.966;2023-09-08T06:35:48;100866.45;;;21.18;57.48
77572;BME280;67214;47.454;18.966;2023-09-08T06:38:16;100867.55;;;21.32;56.70
77572;BME280;67214;47.454;18.966;2023-09-08T06:40:44;100872.08;;;21.44;56.38
77572;BME280;67214;47.454;18.966;2023-09-08T06:43:11;100865.45;;;21.50;56.37
77572;BME280;67214;47.454;18.966;2023-09-08T06:45:39;100869.14;;;21.53;56.16
77572;BME280;67214;47.454;18.966;2023-09-08T06:48:09;100869.78;;;21.63;55.41
77572;BME280;67214;47.454;18.966;2023-09-08T06:50:36;100860.30;;;21.67;56.13
77572;BME280;67214;47.454;18.966;2023-09-08T06:53:04;100858.39;;;21.76;55.36
77572;BME280;67214;47.454;18.966;2023-09-08T06:55:32;100860.48;;;21.93;54.69
77572;BME280;67214;47.454;18.966;2023-09-08T06:57:59;100861.80;;;22.01;54.52
77572;BME280;67214;47.454;18.966;2023-09-08T07:00:27;100860.80;;;22.20;53.74
77572;BME280;67214;47.454;18.966;2023-09-08T07:02:54;100860.53;;;22.30;54.23
77572;BME280;67214;47.454;18.966;2023-09-08T07:05:22;100861.77;;;22.42;54.21
77572;BME280;67214;47.454;18.966;2023-09-08T07:07:49;100861.98;;;22.55;54.02
77572;BME280;67214;47.454;18.966;2023-09-08T07:10:17;100868.48;;;22.69;53.52
77572;BME280;67214;47.454;18.966;2023-09-08T07:12:44;100863.80;;;22.82;52.07
77572;BME280;67214;47.454;18.966;2023-09-08T07:15:12;100862.16;;;22.77;51.76
77572;BME280;67214;47.454;18.966;2023-09-08T07:17:39;100863.70;;;22.90;52.13
77572;BME280;67214;47.454;18.966;2023-09-08T07:20:09;100857.16;;;22.99;52.17
77572;BME280;67214;47.454;18.966;2023-09-08T07:22:36;100852.50;;;22.93;51.40
77572;BME280;67214;47.454;18.966;2023-09-08T07:25:04;100856.80;;;23.02;51.24
77572;BME280;67214;47.454;18.966;2023-09-08T07:27:32;100853.89;;;23.03;52.54
77572;BME280;67214;47.454;18.966;2023-09-08T07:29:59;100850.11;;;23.08;52.33
77572;BME280;67214;47.454;18.966;2023-09-08T07:32:27;100842.66;;;23.10;51.32
77572;BME280;67214;47.454;18.966;2023-09-08T07:34:54;100836.55;;;23.23;50.44
77572;BME280;67214;47.454;18.966;2023-09-08T07:37:22;100844.95;;;23.28;50.12
77572;BME280;67214;47.454;18.966;2023-09-08T07:39:51;100839.77;;;23.37;51.61
77572;BME280;67214;47.454;18.966;2023-09-08T07:42:18;100836.34;;;23.43;50.85
77572;BME280;67214;47.454;18.966;2023-09-08T07:44:46;100839.52;;;23.47;51.04
77572;BME280;67214;47.454;18.966;2023-09-08T07:47:14;100826.55;;;23.53;49.70
77572;BME280;67214;47.454;18.966;2023-09-08T07:49:45;100835.22;;;23.63;50.27
77572;BME280;67214;47.454;18.966;2023-09-08T07:52:12;100844.75;;;23.80;51.27
77572;BME280;67214;47.454;18.966;2023-09-08T07:54:40;100838.20;;;24.00;48.69
77572;BME280;67214;47.454;18.966;2023-09-08T07:57:07;100832.85;;;23.96;49.48
77572;BME280;67214;47.454;18.966;2023-09-08T07:59:35;100836.65;;;24.12;49.38
77572;BME280;67214;47.454;18.966;2023-09-08T08:02:02;100836.28;;;24.15;48.50
77572;BME280;67214;47.454;18.966;2023-09-08T08:04:30;100839.03;;;24.11;49.42
77572;BME280;67214;47.454;18.966;2023-09-08T08:06:57;100829.63;;;24.28;49.52
77572;BME280;67214;47.454;18.966;2023-09-08T08:19:13;100833.64;;;24.77;48.41
77572;BME280;67214;47.454;18.966;2023-09-08T08:21:40;100832.28;;;24.94;48.75
77572;BME280;67214;47.454;18.966;2023-09-08T08:24:09;100819.39;;;25.03;47.78
77572;BME280;67214;47.454;18.966;2023-09-08T08:26:36;100831.44;;;25.11;46.49
77572;BME280;67214;47.454;18.966;2023-09-08T08:29:04;100830.98;;;25.01;46.19
77572;BME280;67214;47.454;18.966;2023-09-08T08:31:31;100830.98;;;25.01;46.19
77572;BME280;67214;47.454;18.966;2023-09-08T08:33:59;100824.79;;;25.14;46.76
77572;BME280;67214;47.454;18.966;2023-09-08T08:36:26;100824.79;;;25.14;46.76
77572;BME280;67214;47.454;18.966;2023-09-08T08:38:54;100818.27;;;25.32;45.14
77572;BME280;67214;47.454;18.966;2023-09-08T08:41:21;100818.27;;;25.32;45.14
77572;BME280;67214;47.454;18.966;2023-09-08T08:43:51;100813.72;;;25.39;45.65
77572;BME280;67214;47.454;18.966;2023-09-08T08:46:19;100810.86;;;25.54;46.72
77572;BME280;67214;47.454;18.966;2023-09-08T08:48:48;100807.73;;;25.57;45.17
77572;BME280;67214;47.454;18.966;2023-09-08T08:51:18;100810.58;;;25.72;46.18
77572;BME280;67214;47.454;18.966;2023-09-08T08:53:46;100809.67;;;25.89;46.18
77572;BME280;67214;47.454;18.966;2023-09-08T08:56:14;100813.86;;;26.05;45.19
77572;BME280;67214;47.454;18.966;2023-09-08T08:58:42;100812.30;;;26.13;45.84
77572;BME280;67214;47.454;18.966;2023-09-08T09:01:11;100809.00;;;26.24;45.70
77572;BME280;67214;47.454;18.966;2023-09-08T09:03:40;100808.05;;;26.34;44.96
77572;BME280;67214;47.454;18.966;2023-09-08T09:06:10;100799.79;;;26.45;44.07
77572;BME280;67214;47.454;18.966;2023-09-08T09:08:39;100808.46;;;26.57;44.29
77572;BME280;67214;47.454;18.966;2023-09-08T09:11:07;100803.42;;;26.61;44.17
77572;BME280;67214;47.454;18.966;2023-09-08T09:13:34;100807.28;;;26.69;44.97
77572;BME280;67214;47.454;18.966;2023-09-08T09:16:02;100807.58;;;26.76;43.86
77572;BME280;67214;47.454;18.966;2023-09-08T09:18:31;100796.86;;;26.95;42.84
77572;BME280;67214;47.454;18.966;2023-09-08T09:21:02;100799.34;;;27.03;44.35
77572;BME280;67214;47.454;18.966;2023-09-08T09:23:31;100794.62;;;27.07;43.85
77572;BME280;67214;47.454;18.966;2023-09-08T09:26:01;100798.25;;;27.17;44.00
77572;BME280;67214;47.454;18.966;2023-09-08T09:28:30;100806.64;;;27.38;43.58
77572;BME280;67214;47.454;18.966;2023-09-08T09:30:58;100797.83;;;27.42;43.49
77572;BME280;67214;47.454;18.966;2023-09-08T09:33:25;100798.11;;;27.43;42.63
77572;BME280;67214;47.454;18.966;2023-09-08T09:35:55;100793.15;;;27.56;41.64
77572;BME280;67214;47.454;18.966;2023-09-08T09:38:25;100790.27;;;27.66;42.24
77572;BME280;67214;47.454;18.966;2023-09-08T09:40:53;100793.59;;;27.84;40.80
77572;BME280;67214;47.454;18.966;2023-09-08T09:43:21;100790.08;;;27.77;42.37
77572;BME280;67214;47.454;18.966;2023-09-08T09:45:51;100789.92;;;27.88;40.37
77572;BME280;67214;47.454;18.966;2023-09-08T09:48:21;100789.06;;;28.03;41.77
77572;BME280;67214;47.454;18.966;2023-09-08T09:50:50;100791.30;;;28.12;40.86
77572;BME280;67214;47.454;18.966;2023-09-08T09:53:19;100782.70;;;28.15;39.62
77572;BME280;67214;47.454;18.966;2023-09-08T09:55:47;100791.16;;;28.32;40.59
77572;BME280;67214;47.454;18.966;2023-09-08T09:58:14;100789.63;;;28.27;39.93
77572;BME280;67214;47.454;18.966;2023-09-08T10:00:42;100791.12;;;28.07;39.14
77572;BME280;67214;47.454;18.966;2023-09-08T10:03:12;100790.88;;;28.00;38.55
77572;BME280;67214;47.454;18.966;2023-09-08T10:05:40;100798.68;;;28.05;40.20
77572;BME280;67214;47.454;18.966;2023-09-08T10:08:08;100796.69;;;28.10;40.04
77572;BME280;67214;47.454;18.966;2023-09-08T10:10:36;100790.25;;;28.13;40.22
77572;BME280;67214;47.454;18.966;2023-09-08T10:13:06;100798.27;;;28.33;40.13
77572;BME280;67214;47.454;18.966;2023-09-08T10:15:35;100801.19;;;28.47;41.55
77572;BME280;67214;47.454;18.966;2023-09-08T10:18:06;100798.09;;;28.62;39.96
77572;BME280;67214;47.454;18.966;2023-09-08T10:20:34;100787.06;;;28.75;40.29
77572;BME280;67214;47.454;18.966;2023-09-08T10:23:13;100789.47;;;28.65;39.75
77572;BME280;67214;47.454;18.966;2023-09-08T10:25:43;100788.89;;;28.72;38.89
77572;BME280;67214;47.454;18.966;2023-09-08T10:28:13;100787.52;;;28.90;38.71
77572;BME280;67214;47.454;18.966;2023-09-08T10:30:41;100787.97;;;28.78;38.67
77572;BME280;67214;47.454;18.966;2023-09-08T10:33:09;100789.94;;;29.07;38.61
77572;BME280;67214;47.454;18.966;2023-09-08T10:35:38;100781.52;;;29.09;38.95
77572;BME280;67214;47.454;18.966;2023-09-08T10:38:25;100779.32;;;29.08;37.71
77572;BME280;67214;47.454;18.966;2023-09-08T10:40:54;100769.20;;;29.36;37.38
77572;BME280;67214;47.454;18.966;2023-09-08T10:43:24;100768.62;;;29.34;36.07
77572;BME280;67214;47.454;18.966;2023-09-08T10:45:51;100759.77;;;29.50;36.76
77572;BME280;67214;47.454;18.966;2023-09-08T10:48:19;100762.05;;;29.86;38.20
77572;BME280;67214;47.454;18.966;2023-09-08T10:50:47;100749.39;;;30.15;37.34
77572;BME280;67214;47.454;18.966;2023-09-08T10:53:18;100749.92;;;30.14;36.58
77572;BME280;67214;47.454;18.966;2023-09-08T10:55:47;100755.06;;;30.45;35.14
77572;BME280;67214;47.454;18.966;2023-09-08T10:58:31;100755.52;;;30.31;35.04
77572;BME280;67214;47.454;18.966;2023-09-08T11:01:19;100751.29;;;30.26;35.50
77572;BME280;67214;47.454;18.966;2023-09-08T11:03:44;100745.80;;;30.37;36.00
77572;BME280;67214;47.454;18.966;2023-09-08T11:06:15;100742.05;;;30.76;35.61
77572;BME280;67214;47.454;18.966;2023-09-08T11:08:45;100748.30;;;30.48;33.23
77572;BME280;67214;47.454;18.966;2023-09-08T11:11:15;100742.02;;;30.87;33.31
77572;BME280;67214;47.454;18.966;2023-09-08T11:13:43;100750.80;;;31.13;33.20
77572;BME280;67214;47.454;18.966;2023-09-08T11:16:14;100735.53;;;31.17;33.91
77572;BME280;67214;47.454;18.966;2023-09-08T11:18:42;100743.01;;;31.50;33.43
77572;BME280;67214;47.454;18.966;2023-09-08T11:21:10;100746.87;;;31.23;32.14
77572;BME280;67214;47.454;18.966;2023-09-08T11:23:38;100734.47;;;31.06;31.93
77572;BME280;67214;47.454;18.966;2023-09-08T11:26:06;100743.17;;;31.57;32.74
77572;BME280;67214;47.454;18.966;2023-09-08T11:28:35;100728.09;;;31.57;31.83
77572;BME280;67214;47.454;18.966;2023-09-08T11:31:04;100720.73;;;31.60;32.14
77572;BME280;67214;47.454;18.966;2023-09-08T11:33:34;100720.53;;;31.98;31.92
77572;BME280;67214;47.454;18.966;2023-09-08T11:36:10;100726.74;;;31.91;31.48
77572;BME280;67214;47.454;18.966;2023-09-08T11:38:33;100722.97;;;31.49;30.61
77572;BME280;67214;47.454;18.966;2023-09-08T11:41:01;100722.94;;;31.61;30.46
77572;BME280;67214;47.454;18.966;2023-09-08T11:43:30;100722.56;;;31.88;30.31
77572;BME280;67214;47.454;18.966;2023-09-08T11:45:59;100716.23;;;32.04;29.84
77572;BME280;67214;47.454;18.966;2023-09-08T11:48:27;100711.19;;;32.32;30.52
77572;BME280;67214;47.454;18.966;2023-09-08T11:50:55;100728.85;;;32.36;29.02
77572;BME280;67214;47.454;18.966;2023-09-08T11:53:23;100711.27;;;32.18;29.14
77572;BME280;67214;47.454;18.966;2023-09-08T11:55:51;100720.72;;;32.44;29.60
77572;BME280;67214;47.454;18.966;2023-09-08T11:58:19;100710.44;;;32.17;29.35
77572;BME280;67214;47.454;18.966;2023-09-08T12:00:47;100719.45;;;32.51;29.75
77572;BME280;67214;47.454;18.966;2023-09-08T12:03:15;100710.60;;;32.28;27.85
77572;BME280;67214;47.454;18.966;2023-09-08T12:05:45;100706.94;;;32.60;28.64
77572;BME280;67214;47.454;18.966;2023-09-08T12:08:13;100701.14;;;32.79;29.25
77572;BME280;67214;47.454;18.966;2023-09-08T12:10:42;100704.63;;;32.52;29.21
77572;BME280;67214;47.454;18.966;2023-09-08T12:13:10;100700.78;;;32.53;28.49
77572;BME280;67214;47.454;18.966;2023-09-08T12:15:40;100704.66;;;32.74;28.49
77572;BME280;67214;47.454;18.966;2023-09-08T12:18:10;100695.80;;;32.91;28.54
77572;BME280;67214;47.454;18.966;2023-09-08T12:20:39;100694.50;;;32.99;27.15
77572;BME280;67214;47.454;18.966;2023-09-08T12:23:18;100689.84;;;32.99;27.11
77572;BME280;67214;47.454;18.966;2023-09-08T12:25:46;100687.22;;;33.34;28.60
77572;BME280;67214;47.454;18.966;2023-09-08T12:28:16;100679.21;;;33.30;28.75
77572;BME280;67214;47.454;18.966;2023-09-08T12:30:43;100673.42;;;33.60;27.47
77572;BME280;67214;47.454;18.966;2023-09-08T12:33:11;100668.75;;;33.29;27.41
77572;BME280;67214;47.454;18.966;2023-09-08T12:35:45;100678.88;;;33.26;27.51
77572;BME280;67214;47.454;18.966;2023-09-08T12:38:13;100668.34;;;33.45;27.61
77572;BME280;67214;47.454;18.966;2023-09-08T12:40:41;100673.77;;;33.37;26.75
77572;BME280;67214;47.454;18.966;2023-09-08T12:43:08;100670.57;;;33.50;26.90
77572;BME280;67214;47.454;18.966;2023-09-08T12:45:36;100671.09;;;33.18;27.26
77572;BME280;67214;47.454;18.966;2023-09-08T12:48:03;100673.92;;;32.58;28.29
77572;BME280;67214;47.454;18.966;2023-09-08T12:50:33;100673.28;;;33.16;27.65
77572;BME280;67214;47.454;18.966;2023-09-08T12:53:00;100656.75;;;33.43;25.78
77572;BME280;67214;47.454;18.966;2023-09-08T12:55:28;100662.66;;;33.27;26.12